Weather at Aberdeen Regional Airport

Public forecast

Using degrees Fahrenheit for public forecast. Weather courtesy of forecast.io.

Current aviation weather report (METAR) for Aberdeen Regional Airport

Retrieved 2020/11/28 12:53 UTC (40 minutes ago):

KABR 281253Z AUTO 21007KT 10SM CLR M05/M08 A2993 RMK AO2 SLP150 T10501078

Aviation forecast (TAF) for Aberdeen Regional Airport

Retrieved 2020/11/28 12:24 UTC (1 hour ago):

TAF KABR 281123Z 2812/2912 20005KT P6SM FEW250 FM281700 24010KT P6SM BKN250 FM290600 32012G24KT P6SM BKN250